Time;durP1;ratioP1;P1;durP2;ratioP2;P2;SDS_P1;SDS_P2;PMS_P1;PMS_P2;Temp;Humidity;BMP_temperature;BMP_pressure;BME280_temperature;BME280_humidity;BME280_pressure;Samples;Min_cycle;Max_cycle;Signal;HPM_P1;HPM_P2
2023/08/04 00:04:13;;;;;;;1.85;0.20;;;;;;;18.41;54.06;97119.09;10375752;28;20157;-65
2023/08/04 00:09:33;;;;;;;3.65;0.10;;;;;;;18.39;54.18;97119.03;10375804;28;20500;-64
2023/08/04 00:14:54;;;;;;;1.25;0.10;;;;;;;18.37;53.83;97127.47;10375396;28;20126;-63
2023/08/04 00:20:15;;;;;;;0.55;0.10;;;;;;;18.35;54.02;97121.06;10372815;28;20403;-64
2023/08/04 00:25:35;;;;;;;1.35;0.10;;;;;;;18.34;54.08;97139.38;10375777;28;20077;-64
2023/08/04 00:30:57;;;;;;;0.75;0.20;;;;;;;18.25;54.19;97125.03;10374883;28;20049;-65
2023/08/04 00:36:18;;;;;;;0.50;0.10;;;;;;;18.20;55.36;97115.00;10359263;28;20120;-66
2023/08/04 00:41:39;;;;;;;2.45;0.20;;;;;;;18.09;54.55;97121.03;10373119;28;20117;-65
2023/08/04 00:47:00;;;;;;;0.95;0.10;;;;;;;18.02;54.91;97120.84;10373751;28;20066;-66
2023/08/04 00:52:21;;;;;;;1.02;0.20;;;;;;;17.96;55.22;97137.63;10373878;28;20088;-66
2023/08/04 00:57:41;;;;;;;1.65;0.10;;;;;;;17.95;54.95;97130.56;10373297;28;20574;-66
2023/08/04 01:03:02;;;;;;;0.85;0.10;;;;;;;17.85;55.61;97144.34;10359822;28;20441;-65
2023/08/04 01:08:24;;;;;;;1.13;0.17;;;;;;;17.79;55.91;97155.47;10359188;28;20164;-65
2023/08/04 01:13:45;;;;;;;1.33;0.20;;;;;;;17.76;56.39;97153.97;10359714;28;20117;-64
2023/08/04 01:19:05;;;;;;;0.77;0.10;;;;;;;17.77;56.45;97166.00;10357245;28;20061;-63
2023/08/04 01:24:26;;;;;;;0.95;0.10;;;;;;;17.71;56.54;97152.41;10372169;28;20501;-64
2023/08/04 01:29:47;;;;;;;0.43;0.10;;;;;;;17.71;56.79;97141.13;10359152;28;20065;-65
2023/08/04 01:35:11;;;;;;;1.25;0.10;;;;;;;17.74;56.78;97139.78;10388376;28;20048;-64
2023/08/04 01:40:31;;;;;;;1.55;0.13;;;;;;;17.76;57.03;97144.75;10394758;28;20600;-64
2023/08/04 01:45:52;;;;;;;1.45;0.10;;;;;;;17.85;56.99;97143.63;10373855;28;20127;-65
2023/08/04 01:51:13;;;;;;;0.68;0.10;;;;;;;17.91;56.86;97150.19;10373477;28;20120;-65
2023/08/04 01:56:34;;;;;;;0.73;0.10;;;;;;;17.91;56.73;97147.34;10368694;28;20128;-65
2023/08/04 02:01:54;;;;;;;0.52;0.10;;;;;;;17.90;56.84;97150.84;10370489;28;20112;-68
2023/08/04 02:07:15;;;;;;;0.73;0.08;;;;;;;17.87;56.91;97158.53;10342894;28;20133;-64
2023/08/04 02:12:36;;;;;;;1.65;0.10;;;;;;;17.85;57.04;97166.94;10354193;28;20065;-64
2023/08/04 02:17:56;;;;;;;0.57;0.10;;;;;;;17.83;57.10;97171.78;10369235;28;20041;-65
2023/08/04 02:23:17;;;;;;;1.60;0.10;;;;;;;17.80;57.08;97176.66;10369971;28;20124;-64
2023/08/04 02:28:38;;;;;;;0.65;0.10;;;;;;;17.74;57.38;97179.28;10367440;28;20504;-64
2023/08/04 02:33:59;;;;;;;0.95;0.10;;;;;;;17.71;57.58;97189.09;10376624;28;20117;-64
2023/08/04 02:39:20;;;;;;;0.80;0.20;;;;;;;17.65;57.61;97157.81;10376795;28;20548;-65
2023/08/04 02:44:41;;;;;;;2.25;0.17;;;;;;;17.61;58.37;97166.19;10379520;28;20069;-64
2023/08/04 02:50:01;;;;;;;0.50;0.10;;;;;;;17.58;58.52;97170.31;10379611;28;20124;-64
2023/08/04 02:55:23;;;;;;;1.48;0.20;;;;;;;17.57;58.77;97172.44;10379467;28;20065;-64
2023/08/04 03:00:43;;;;;;;2.42;0.10;;;;;;;17.58;58.75;97184.44;10379363;28;20165;-64
2023/08/04 03:06:04;;;;;;;0.28;0.10;;;;;;;17.59;58.80;97183.06;10379002;28;20153;-64
2023/08/04 03:11:25;;;;;;;0.63;0.10;;;;;;;17.60;59.04;97182.38;10378802;28;20511;-64
2023/08/04 03:16:45;;;;;;;2.13;0.20;;;;;;;17.61;59.50;97192.28;10377516;28;20186;-65
2023/08/04 03:22:06;;;;;;;1.27;0.15;;;;;;;17.55;59.31;97188.56;10377461;28;20089;-65
2023/08/04 03:27:27;;;;;;;0.63;0.17;;;;;;;17.43;59.63;97198.06;10377987;28;20145;-65
2023/08/04 03:32:48;;;;;;;1.02;0.10;;;;;;;17.28;59.72;97182.09;10377986;28;20060;-65
2023/08/04 03:38:08;;;;;;;1.40;0.20;;;;;;;17.13;59.93;97188.63;10376849;28;20118;-65
2023/08/04 03:43:29;;;;;;;1.88;0.10;;;;;;;17.07;60.44;97202.53;10376855;28;20069;-65
2023/08/04 03:48:50;;;;;;;0.95;0.10;;;;;;;17.10;60.43;97212.50;10377429;28;20076;-65
2023/08/04 03:54:10;;;;;;;1.85;0.10;;;;;;;17.19;60.02;97200.13;10377005;28;20169;-65
2023/08/04 03:59:31;;;;;;;2.10;0.20;;;;;;;17.26;60.46;97218.66;10376960;28;20113;-65
2023/08/04 04:04:52;;;;;;;1.40;0.20;;;;;;;17.35;60.40;97220.38;10375722;28;20136;-65
2023/08/04 04:10:13;;;;;;;1.65;0.20;;;;;;;17.41;60.12;97220.59;10375570;28;20069;-64
2023/08/04 04:15:34;;;;;;;0.65;0.10;;;;;;;17.54;60.51;97224.50;10376440;28;20065;-65
2023/08/04 04:20:54;;;;;;;0.63;0.20;;;;;;;17.76;60.31;97209.69;10376033;28;20070;-65
2023/08/04 04:26:15;;;;;;;1.08;0.20;;;;;;;17.96;60.16;97204.69;10374837;28;20165;-64
2023/08/04 04:31:37;;;;;;;4.38;0.13;;;;;;;18.14;59.83;97199.53;10375384;28;20553;-64
2023/08/04 04:36:58;;;;;;;1.90;0.22;;;;;;;18.30;59.80;97207.78;10375313;28;20057;-64
2023/08/04 04:42:18;;;;;;;1.20;0.17;;;;;;;18.40;59.61;97215.81;10375107;28;20560;-65
2023/08/04 04:47:39;;;;;;;1.42;0.20;;;;;;;18.39;58.84;97220.03;10375025;28;20116;-65
2023/08/04 04:53:00;;;;;;;2.38;0.30;;;;;;;18.66;58.58;97236.38;10373469;28;20548;-65
2023/08/04 04:58:21;;;;;;;2.80;0.30;;;;;;;19.13;57.55;97244.00;10373702;28;20065;-65
2023/08/04 05:03:41;;;;;;;0.82;0.32;;;;;;;19.51;56.31;97254.88;10374297;28;20080;-65
2023/08/04 05:09:03;;;;;;;1.33;0.30;;;;;;;20.03;55.65;97257.53;10374095;28;20125;-65
2023/08/04 05:14:24;;;;;;;2.38;0.32;;;;;;;20.44;54.38;97249.94;10373230;28;20452;-65
2023/08/04 05:19:45;;;;;;;3.72;0.30;;;;;;;20.46;53.46;97269.81;10374013;28;20133;-65
2023/08/04 05:25:06;;;;;;;1.10;0.20;;;;;;;20.58;53.02;97282.16;10374140;28;20120;-65
2023/08/04 05:30:31;;;;;;;2.97;0.30;;;;;;;20.79;53.03;97277.63;10373799;28;20100;-63
2023/08/04 05:35:52;;;;;;;0.70;0.10;;;;;;;20.95;51.97;97276.50;10373823;28;20117;-63
2023/08/04 05:41:12;;;;;;;2.10;0.20;;;;;;;20.50;51.88;97281.25;10372877;28;20153;-62
2023/08/04 05:46:33;;;;;;;2.28;0.50;;;;;;;20.98;51.74;97289.31;10373728;28;20117;-65
2023/08/04 05:51:54;;;;;;;1.63;0.30;;;;;;;21.61;50.84;97296.16;10373664;28;20132;-66
2023/08/04 05:57:15;;;;;;;2.88;0.22;;;;;;;22.30;49.71;97308.66;10372413;28;20451;-63
2023/08/04 06:02:36;;;;;;;1.55;0.20;;;;;;;23.31;48.33;97314.19;10373243;28;20117;-63
2023/08/04 06:07:57;;;;;;;3.78;0.68;;;;;;;24.43;46.57;97323.75;10378831;28;20062;-65
2023/08/04 06:13:17;;;;;;;1.30;0.20;;;;;;;25.36;44.44;97309.91;10379862;28;20121;-65
2023/08/04 06:18:38;;;;;;;0.50;0.10;;;;;;;26.10;42.68;97324.28;10379895;28;20062;-65
2023/08/04 06:23:59;;;;;;;0.60;0.15;;;;;;;26.55;40.78;97309.97;10380499;28;20133;-65
2023/08/04 06:29:20;;;;;;;1.27;0.10;;;;;;;27.45;39.64;97322.47;10380401;28;20074;-65
2023/08/04 06:34:40;;;;;;;0.60;0.10;;;;;;;28.04;37.93;97324.25;10380065;28;20457;-65
2023/08/04 06:40:01;;;;;;;1.38;0.17;;;;;;;28.08;35.73;97330.66;10379849;28;20180;-66
2023/08/04 06:45:22;;;;;;;0.95;0.20;;;;;;;29.42;34.79;97325.63;10378837;28;20089;-65
2023/08/04 06:50:43;;;;;;;1.30;0.20;;;;;;;30.56;32.16;97341.13;10379710;28;20485;-66
2023/08/04 06:56:04;;;;;;;1.48;0.20;;;;;;;32.31;29.84;97336.72;10379316;28;20056;-66
2023/08/04 07:01:24;;;;;;;1.15;0.20;;;;;;;31.85;29.12;97348.63;10379093;28;20413;-65
2023/08/04 07:06:45;;;;;;;0.90;0.20;;;;;;;30.31;29.88;97352.38;10378891;28;20611;-65
2023/08/04 07:12:07;;;;;;;1.50;0.20;;;;;;;28.83;30.77;97351.50;10377732;28;20491;-65
2023/08/04 07:17:27;;;;;;;2.03;0.20;;;;;;;27.00;33.61;97342.00;10377587;28;20488;-65
2023/08/04 07:22:49;;;;;;;4.33;0.20;;;;;;;27.22;35.32;97332.66;10378179;28;20125;-65
2023/08/04 07:28:09;;;;;;;0.90;0.10;;;;;;;28.79;33.04;97335.03;10377993;28;20073;-65
2023/08/04 07:33:30;;;;;;;1.20;0.20;;;;;;;27.36;33.86;97347.59;10377856;28;20125;-65
2023/08/04 07:38:51;;;;;;;1.10;0.10;;;;;;;26.51;35.16;97351.44;10377768;28;20097;-65
2023/08/04 07:44:12;;;;;;;0.70;0.10;;;;;;;26.85;36.03;97347.09;10377782;28;20046;-65
2023/08/04 07:49:32;;;;;;;0.73;0.10;;;;;;;33.12;32.81;97346.13;10377242;28;20066;-65
2023/08/04 07:54:53;;;;;;;2.53;0.20;;;;;;;40.84;23.28;97355.91;10377279;28;20120;-66
2023/08/04 08:00:14;;;;;;;0.63;0.10;;;;;;;42.19;19.23;97348.22;10377244;28;20117;-66
2023/08/04 08:05:35;;;;;;;1.15;0.30;;;;;;;41.72;19.44;97351.94;10377000;28;20145;-66
2023/08/04 08:10:56;;;;;;;1.55;0.20;;;;;;;46.06;14.84;97357.97;10376808;28;20509;-66
2023/08/04 08:16:17;;;;;;;0.90;0.10;;;;;;;46.19;14.07;97370.84;10376240;28;20124;-66
2023/08/04 08:21:43;;;;;;;1.23;0.10;;;;;;;46.05;12.23;97377.19;10376248;28;20500;-66
2023/08/04 08:27:04;;;;;;;1.52;0.10;;;;;;;38.12;16.23;97372.03;10375790;28;20500;-66
2023/08/04 08:32:24;;;;;;;1.85;0.20;;;;;;;32.77;21.22;97371.63;10375839;28;20066;-66
2023/08/04 08:37:45;;;;;;;0.73;0.10;;;;;;;30.35;25.16;97380.38;10375287;28;20060;-65
2023/08/04 08:43:06;;;;;;;0.80;0.10;;;;;;;31.72;27.48;97396.50;10375560;28;20066;-66
2023/08/04 08:48:27;;;;;;;0.63;0.10;;;;;;;31.90;26.41;97383.88;10375257;28;20142;-66
2023/08/04 08:53:48;;;;;;;0.70;0.20;;;;;;;30.59;27.38;97385.00;10374062;28;20077;-66
2023/08/04 08:59:09;;;;;;;0.28;0.10;;;;;;;30.34;28.53;97379.66;10374732;28;20108;-66
2023/08/04 09:04:33;;;;;;;1.17;0.30;;;;;;;29.84;28.63;97379.00;10373826;28;20062;-66
2023/08/04 09:09:54;;;;;;;1.23;0.20;;;;;;;28.78;29.78;97380.28;10374434;28;20097;-66
2023/08/04 09:15:15;;;;;;;0.75;0.13;;;;;;;28.37;30.85;97384.94;10373189;28;20045;-65
2023/08/04 09:20:36;;;;;;;1.35;0.30;;;;;;;27.49;31.50;97370.47;10374320;28;20042;-66
2023/08/04 09:25:57;;;;;;;1.77;0.20;;;;;;;26.56;33.22;97355.03;10374249;28;20080;-66
2023/08/04 09:31:17;;;;;;;2.22;0.20;;;;;;;26.40;33.68;97358.63;10373846;28;20122;-66
2023/08/04 09:36:43;;;;;;;3.10;0.20;;;;;;;26.56;34.06;97371.47;10374159;28;20133;-65
2023/08/04 09:42:04;;;;;;;1.42;0.20;;;;;;;27.56;34.01;97366.84;10364655;28;20156;-66
2023/08/04 09:47:26;;;;;;;2.90;0.40;;;;;;;27.90;33.04;97356.63;10382167;28;20500;-66
2023/08/04 09:52:47;;;;;;;2.90;0.22;;;;;;;29.37;32.66;97353.03;10382115;28;20129;-65
2023/08/04 09:58:07;;;;;;;0.63;0.10;;;;;;;32.01;28.74;97353.28;10381585;28;20176;-66
2023/08/04 10:03:28;;;;;;;0.80;0.13;;;;;;;32.63;26.74;97361.88;10366732;28;20468;-66
2023/08/04 10:08:50;;;;;;;0.85;0.20;;;;;;;31.76;27.23;97382.03;10380193;28;20603;-65
2023/08/04 10:14:11;;;;;;;1.42;0.20;;;;;;;30.03;28.29;97381.59;10381257;28;20057;-66
2023/08/04 10:19:33;;;;;;;2.90;0.50;;;;;;;28.93;29.73;97377.25;10379742;28;20420;-66
2023/08/04 10:24:53;;;;;;;1.02;0.20;;;;;;;28.39;30.70;97379.94;10379823;28;20173;-66
2023/08/04 10:30:14;;;;;;;0.55;0.10;;;;;;;28.10;30.97;97379.41;10379418;28;20480;-65
2023/08/04 10:35:42;;;;;;;1.00;0.20;;;;;;;27.91;31.48;97372.38;10380125;28;20112;-66
2023/08/04 10:41:06;;;;;;;0.82;0.10;;;;;;;28.08;31.84;97361.50;10366324;28;20077;-65
2023/08/04 10:46:27;;;;;;;0.77;0.10;;;;;;;30.18;30.26;97362.66;10379821;28;20509;-66
2023/08/04 10:51:49;;;;;;;0.93;0.20;;;;;;;31.63;28.20;97364.22;10377226;28;20054;-66
2023/08/04 10:57:18;;;;;;;1.77;0.10;;;;;;;33.17;27.23;97375.63;10378345;28;20046;-66
2023/08/04 11:02:38;;;;;;;0.60;0.10;;;;;;;34.08;26.21;97357.72;10379056;28;20096;-66
2023/08/04 11:07:59;;;;;;;0.52;0.10;;;;;;;34.43;24.65;97377.59;10378193;28;20041;-66
2023/08/04 11:13:21;;;;;;;1.25;0.15;;;;;;;34.24;24.36;97379.66;10377643;28;20081;-66
2023/08/04 11:18:42;;;;;;;0.52;0.10;;;;;;;33.11;24.63;97376.50;10377445;28;20050;-66
2023/08/04 11:24:03;;;;;;;0.68;0.10;;;;;;;32.46;25.34;97381.09;10377220;28;20049;-66
2023/08/04 11:29:24;;;;;;;;;;;;;;;31.78;25.57;97379.09;10377252;28;20054;-66
2023/08/04 11:34:45;;;;;;;1.20;0.30;;;;;;;31.56;25.77;97371.63;10377580;28;20033;-66
2023/08/04 11:40:24;;;;;;;1.77;0.40;;;;;;;31.20;26.52;97369.47;10377654;28;20100;-65
2023/08/04 11:45:46;;;;;;;1.55;0.10;;;;;;;32.38;25.98;97372.63;10376532;28;20057;-66
2023/08/04 11:51:17;;;;;;;0.80;0.20;;;;;;;31.67;25.29;97374.28;10377280;28;20046;-65
2023/08/04 11:56:38;;;;;;;0.57;0.10;;;;;;;31.92;25.50;97360.72;10377041;28;20118;-66
2023/08/04 12:02:06;;;;;;;1.38;0.13;;;;;;;32.37;25.37;97348.13;10376479;28;20045;-65
2023/08/04 12:07:28;;;;;;;0.90;0.20;;;;;;;32.19;25.04;97372.34;10376138;28;20093;-66
2023/08/04 12:12:49;;;;;;;0.60;0.20;;;;;;;31.50;25.28;97374.63;10376563;28;20443;-65
2023/08/04 12:18:23;;;;;;;0.30;0.10;;;;;;;31.68;25.72;97393.72;10376120;28;20038;-66
2023/08/04 12:23:47;;;;;;;1.90;0.20;;;;;;;31.50;26.03;97397.00;10376090;28;20104;-66
2023/08/04 12:29:09;;;;;;;1.20;0.20;;;;;;;31.78;25.49;97396.41;10375724;28;20065;-65
2023/08/04 12:34:31;;;;;;;1.85;0.30;;;;;;;30.83;25.96;97387.47;10374529;28;20050;-66
2023/08/04 12:39:51;;;;;;;1.27;0.20;;;;;;;30.49;26.70;97400.28;10374522;28;20057;-65
2023/08/04 12:45:16;;;;;;;2.42;0.10;;;;;;;31.21;26.57;97386.03;10374411;28;20069;-65
2023/08/04 12:50:37;;;;;;;0.55;0.20;;;;;;;31.79;26.56;97394.22;10374628;28;20046;-65
2023/08/04 12:55:58;;;;;;;0.80;0.20;;;;;;;31.99;26.45;97384.38;10374860;28;20535;-66
2023/08/04 13:01:19;;;;;;;1.73;0.20;;;;;;;31.45;26.14;97390.59;10374281;28;20540;-65
2023/08/04 13:06:40;;;;;;;0.77;0.20;;;;;;;31.03;26.63;97401.50;10373429;28;20061;-65
2023/08/04 13:12:01;;;;;;;1.15;0.20;;;;;;;30.63;26.80;97422.38;10374498;28;20473;-65
2023/08/04 13:17:24;;;;;;;1.25;0.30;;;;;;;29.32;28.63;97415.59;10372534;28;20081;-65
2023/08/04 13:22:48;;;;;;;0.88;0.20;;;;;;;29.25;28.77;97417.13;10373219;28;20415;-65
2023/08/04 13:28:09;;;;;;;0.85;0.20;;;;;;;28.11;30.11;97421.00;10374153;28;20056;-65
2023/08/04 13:33:30;;;;;;;1.90;0.20;;;;;;;28.13;30.62;97423.84;10359350;28;20062;-65
2023/08/04 13:38:51;;;;;;;2.85;0.25;;;;;;;27.99;30.60;97420.34;10373907;28;20073;-65
2023/08/04 13:44:12;;;;;;;1.48;0.20;;;;;;;27.50;32.01;97418.44;10373881;28;20066;-65
2023/08/04 13:49:32;;;;;;;1.65;0.20;;;;;;;27.57;32.17;97411.25;10373776;28;20486;-64
2023/08/04 13:54:53;;;;;;;2.13;0.25;;;;;;;28.00;31.85;97408.19;10373590;28;20553;-65
2023/08/04 14:00:14;;;;;;;2.00;0.30;;;;;;;27.73;32.31;97393.28;10373464;28;20472;-65
2023/08/04 14:05:37;;;;;;;0.80;0.20;;;;;;;27.26;33.05;97395.66;10359391;28;20058;-65
2023/08/04 14:10:58;;;;;;;1.98;0.20;;;;;;;27.69;33.00;97396.16;10373301;28;20038;-65
2023/08/04 14:16:18;;;;;;;1.85;0.55;;;;;;;27.88;32.30;97393.91;10373255;28;20042;-65
2023/08/04 14:21:39;;;;;;;1.30;0.30;;;;;;;27.99;32.73;97385.94;10373113;28;20050;-65
2023/08/04 14:27:00;;;;;;;2.88;0.22;;;;;;;27.77;32.08;97389.69;10374825;28;20058;-65
2023/08/04 14:32:22;;;;;;;1.55;0.25;;;;;;;26.99;33.34;97381.38;10380650;28;20051;-65
2023/08/04 14:37:43;;;;;;;1.00;0.20;;;;;;;26.38;34.38;97375.06;10380305;28;20139;-65
2023/08/04 14:43:04;;;;;;;3.35;0.32;;;;;;;25.93;34.97;97383.59;10380155;28;20054;-65
2023/08/04 14:48:25;;;;;;;2.90;0.30;;;;;;;25.81;35.40;97380.75;10379859;28;20057;-65
2023/08/04 14:53:46;;;;;;;2.13;0.20;;;;;;;26.38;35.71;97381.50;10365333;28;20042;-65
2023/08/04 14:59:07;;;;;;;3.55;0.40;;;;;;;26.55;35.18;97375.78;10378990;28;20104;-65
2023/08/04 15:04:28;;;;;;;2.60;0.20;;;;;;;26.60;35.34;97374.31;10378899;28;20062;-65
2023/08/04 15:09:49;;;;;;;0.88;0.28;;;;;;;26.78;34.61;97351.38;10379222;28;20065;-65
2023/08/04 15:15:10;;;;;;;1.08;0.30;;;;;;;26.86;34.76;97345.63;10377912;28;20558;-65
2023/08/04 15:20:30;;;;;;;1.88;0.30;;;;;;;26.78;34.49;97352.09;10377835;28;20468;-64
2023/08/04 15:25:52;;;;;;;2.28;0.30;;;;;;;26.80;34.76;97342.78;10378277;28;20070;-64
2023/08/04 15:31:13;;;;;;;1.05;0.20;;;;;;;26.73;34.62;97350.69;10377314;28;20061;-64
2023/08/04 15:36:35;;;;;;;1.02;0.20;;;;;;;26.74;34.70;97345.69;10376951;28;20085;-65
2023/08/04 15:41:56;;;;;;;2.08;0.30;;;;;;;26.26;34.97;97352.88;10376575;28;20396;-64
2023/08/04 15:47:17;;;;;;;0.65;0.20;;;;;;;26.20;35.06;97358.59;10377809;28;20041;-64
2023/08/04 15:52:39;;;;;;;1.63;0.28;;;;;;;26.04;35.62;97367.19;10376329;28;20053;-64
2023/08/04 15:57:59;;;;;;;0.70;0.20;;;;;;;26.17;35.78;97360.03;10376226;28;20053;-65
2023/08/04 16:03:20;;;;;;;2.50;0.30;;;;;;;25.88;36.53;97353.59;10376753;28;20081;-64
2023/08/04 16:08:41;;;;;;;1.15;0.20;;;;;;;25.79;36.38;97343.59;10375898;28;20065;-64
2023/08/04 16:14:02;;;;;;;1.67;0.28;;;;;;;25.63;36.67;97344.94;10375509;28;20369;-65
2023/08/04 16:19:23;;;;;;;1.95;0.30;;;;;;;25.63;36.61;97352.81;10376368;28;20472;-64
2023/08/04 16:24:46;;;;;;;1.67;0.30;;;;;;;25.34;36.58;97360.59;10375329;28;20408;-64
2023/08/04 16:30:08;;;;;;;0.52;0.20;;;;;;;25.24;37.08;97369.84;10374983;28;20061;-64
2023/08/04 16:35:28;;;;;;;1.02;0.20;;;;;;;25.07;36.69;97351.22;10375748;28;20473;-63
2023/08/04 16:40:54;;;;;;;1.50;0.22;;;;;;;24.71;37.21;97334.63;10375489;28;20049;-64
2023/08/04 16:46:14;;;;;;;0.40;0.10;;;;;;;24.58;37.69;97322.41;10360939;28;20499;-64
2023/08/04 16:51:35;;;;;;;2.90;0.30;;;;;;;24.62;37.55;97328.16;10360569;28;20054;-64
2023/08/04 16:56:56;;;;;;;4.47;0.30;;;;;;;24.79;37.52;97335.34;10375155;28;20480;-65
2023/08/04 17:02:17;;;;;;;2.20;0.30;;;;;;;25.14;37.84;97332.69;10374977;28;20054;-64
2023/08/04 17:07:38;;;;;;;2.90;0.20;;;;;;;25.08;37.41;97332.66;10373694;28;20100;-64
2023/08/04 17:12:59;;;;;;;2.28;0.30;;;;;;;24.87;37.62;97336.81;10373560;28;20447;-64
2023/08/04 17:18:20;;;;;;;1.08;0.20;;;;;;;24.43;37.86;97344.44;10374272;28;20502;-64
2023/08/04 17:23:41;;;;;;;0.95;0.20;;;;;;;24.18;38.40;97349.22;10374415;28;20065;-64
2023/08/04 17:29:02;;;;;;;1.80;0.20;;;;;;;23.90;38.66;97363.22;10359218;28;20049;-64
2023/08/04 17:34:23;;;;;;;1.47;0.30;;;;;;;23.58;39.10;97367.19;10373106;28;20046;-64
2023/08/04 17:39:44;;;;;;;1.25;0.30;;;;;;;23.32;39.49;97378.28;10374050;28;20532;-64
2023/08/04 17:45:05;;;;;;;2.92;0.20;;;;;;;23.17;39.65;97385.22;10358986;28;20132;-64
2023/08/04 17:50:26;;;;;;;2.25;0.40;;;;;;;22.98;40.01;97404.19;10372843;28;20407;-64
2023/08/04 17:55:47;;;;;;;0.80;0.20;;;;;;;22.82;40.53;97411.06;10373402;28;20129;-64
2023/08/04 18:01:08;;;;;;;0.57;0.20;;;;;;;22.72;41.04;97418.75;10375113;28;20433;-64
2023/08/04 18:06:29;;;;;;;0.80;0.25;;;;;;;22.66;41.23;97421.50;10381148;28;20050;-64
2023/08/04 18:11:50;;;;;;;1.90;0.20;;;;;;;22.57;41.53;97427.06;10381453;28;20125;-64
2023/08/04 18:17:10;;;;;;;1.67;0.30;;;;;;;22.41;41.82;97426.81;10381220;28;20121;-64
2023/08/04 18:22:31;;;;;;;4.68;0.40;;;;;;;22.27;42.40;97435.09;10380882;28;20493;-63
2023/08/04 18:27:51;;;;;;;1.00;0.40;;;;;;;22.15;42.65;97440.59;10380830;28;20448;-63
2023/08/04 18:33:12;;;;;;;2.00;0.40;;;;;;;22.03;43.16;97448.88;10379436;28;20557;-64
2023/08/04 18:38:33;;;;;;;1.67;0.40;;;;;;;21.94;43.67;97450.84;10380239;28;20145;-64
2023/08/04 18:43:54;;;;;;;1.60;0.30;;;;;;;21.87;43.69;97452.84;10380075;28;20066;-64
2023/08/04 18:49:15;;;;;;;2.60;0.50;;;;;;;21.79;44.05;97449.84;10380200;28;20054;-64
2023/08/04 18:54:36;;;;;;;1.13;0.40;;;;;;;21.73;44.60;97438.41;10379753;28;20403;-64
2023/08/04 18:59:56;;;;;;;3.15;0.60;;;;;;;21.65;44.80;97441.09;10378458;28;20070;-64
2023/08/04 19:05:17;;;;;;;1.27;0.50;;;;;;;21.51;45.11;97441.50;10379323;28;20050;-64
2023/08/04 19:10:38;;;;;;;2.05;0.60;;;;;;;21.46;45.51;97450.66;10379124;28;20117;-64
2023/08/04 19:15:59;;;;;;;1.88;0.52;;;;;;;21.37;45.74;97449.75;10377993;28;20122;-64
2023/08/04 19:21:19;;;;;;;2.08;0.50;;;;;;;21.31;46.14;97456.00;10378560;28;20126;-64
2023/08/04 19:26:40;;;;;;;2.03;0.40;;;;;;;21.26;46.66;97453.75;10378533;28;20129;-64
2023/08/04 19:32:01;;;;;;;5.03;0.50;;;;;;;21.23;47.06;97474.97;10378202;28;20088;-64
2023/08/04 19:37:22;;;;;;;5.15;0.60;;;;;;;21.23;47.42;97492.75;10377049;28;20125;-64
2023/08/04 19:42:42;;;;;;;4.80;0.73;;;;;;;21.19;47.93;97477.72;10378196;28;20172;-65
2023/08/04 19:48:03;;;;;;;3.90;0.70;;;;;;;21.12;48.06;97485.38;10377682;28;20145;-64
2023/08/04 19:53:24;;;;;;;1.38;0.70;;;;;;;21.00;48.85;97483.00;10377547;28;20080;-65
2023/08/04 19:58:45;;;;;;;3.80;0.70;;;;;;;20.93;49.34;97477.84;10377117;28;20507;-64
2023/08/04 20:04:06;;;;;;;4.45;0.60;;;;;;;20.91;50.39;97486.31;10377056;28;20588;-64
2023/08/04 20:09:27;;;;;;;8.93;0.80;;;;;;;20.81;50.10;97490.38;10376737;28;20504;-64
2023/08/04 20:14:51;;;;;;;1.75;0.70;;;;;;;20.71;50.80;97486.56;10376739;28;20038;-65
2023/08/04 20:20:11;;;;;;;3.88;0.80;;;;;;;20.63;51.73;97492.06;10375584;28;20062;-64
2023/08/04 20:25:32;;;;;;;5.32;0.90;;;;;;;20.58;52.80;97496.91;10375994;28;20125;-64
2023/08/04 20:31:01;;;;;;;3.80;0.68;;;;;;;20.53;53.26;97484.75;10375961;28;20125;-64
2023/08/04 20:36:22;;;;;;;1.85;0.68;;;;;;;20.49;53.55;97492.44;10361119;28;20070;-64
2023/08/04 20:41:43;;;;;;;3.53;0.50;;;;;;;20.48;54.29;97496.66;10375719;28;20464;-65
2023/08/04 20:47:04;;;;;;;3.15;0.50;;;;;;;20.40;53.79;97493.59;10375401;28;20526;-64
2023/08/04 20:52:25;;;;;;;5.30;0.77;;;;;;;20.26;54.87;97502.44;10375389;28;20126;-64
2023/08/04 20:57:45;;;;;;;2.75;0.50;;;;;;;20.14;55.13;97491.53;10374440;28;20054;-64
2023/08/04 21:03:07;;;;;;;2.08;0.63;;;;;;;20.06;55.97;97496.97;10373962;28;20499;-65
2023/08/04 21:08:28;;;;;;;2.75;0.73;;;;;;;19.96;56.30;97494.59;10373979;28;20041;-64
2023/08/04 21:13:49;;;;;;;3.15;0.57;;;;;;;19.87;56.95;97487.28;10374551;28;20133;-65
2023/08/04 21:19:09;;;;;;;4.07;0.70;;;;;;;19.83;57.27;97483.63;10373496;28;20536;-64
2023/08/04 21:24:30;;;;;;;2.80;1.08;;;;;;;19.77;57.66;97489.09;10374202;28;20069;-64
2023/08/04 21:29:51;;;;;;;3.75;0.50;;;;;;;19.67;57.93;97481.78;10373165;28;20080;-64
2023/08/04 21:35:11;;;;;;;2.60;0.50;;;;;;;19.61;58.09;97501.44;10373614;28;20125;-64
2023/08/04 21:40:32;;;;;;;1.05;0.50;;;;;;;19.55;58.61;97492.75;10373841;28;20147;-65
2023/08/04 21:45:54;;;;;;;3.42;0.55;;;;;;;19.51;58.73;97498.31;10373173;28;20121;-65
2023/08/04 21:51:15;;;;;;;2.90;0.70;;;;;;;19.49;58.66;97503.88;10373754;28;20122;-64
2023/08/04 21:56:36;;;;;;;4.45;0.50;;;;;;;19.47;58.85;97497.44;10373726;28;20531;-65
2023/08/04 22:01:58;;;;;;;1.70;0.43;;;;;;;19.45;59.13;97500.94;10372592;28;20109;-65
2023/08/04 22:07:18;;;;;;;1.88;0.63;;;;;;;19.42;59.19;97500.16;10373285;28;20084;-65
2023/08/04 22:12:39;;;;;;;1.45;0.52;;;;;;;19.39;59.30;97498.66;10372440;28;20172;-64
2023/08/04 22:18:00;;;;;;;2.58;0.50;;;;;;;19.34;59.20;97496.38;10373292;28;20142;-64
2023/08/04 22:23:21;;;;;;;1.80;0.40;;;;;;;19.31;59.64;97492.06;10373302;28;20429;-64
2023/08/04 22:28:41;;;;;;;1.63;0.70;;;;;;;19.29;59.89;97494.81;10373080;28;20077;-64
2023/08/04 22:34:02;;;;;;;1.60;0.50;;;;;;;19.29;60.07;97489.16;10373094;28;20444;-64
2023/08/04 22:39:23;;;;;;;1.25;0.55;;;;;;;19.27;60.18;97498.31;10371730;28;20472;-64
2023/08/04 22:44:45;;;;;;;2.15;0.40;;;;;;;19.27;60.13;97508.91;10372877;28;20121;-64
2023/08/04 22:50:06;;;;;;;1.42;0.65;;;;;;;19.24;60.15;97507.41;10377650;28;20500;-64
2023/08/04 22:55:27;;;;;;;1.65;0.50;;;;;;;19.24;60.32;97513.06;10378714;28;20050;-64
2023/08/04 23:00:47;;;;;;;5.43;0.60;;;;;;;19.20;60.31;97504.44;10379661;28;20085;-65
2023/08/04 23:06:12;;;;;;;1.25;0.40;;;;;;;19.20;60.68;97512.94;10364518;28;20124;-64
2023/08/04 23:11:33;;;;;;;2.10;0.68;;;;;;;19.15;61.11;97512.09;10379266;28;20484;-63
2023/08/04 23:16:53;;;;;;;2.38;0.60;;;;;;;19.10;61.40;97497.09;10378759;28;20085;-64
2023/08/04 23:22:15;;;;;;;3.40;0.88;;;;;;;19.05;61.40;97506.84;10377883;28;20113;-64
2023/08/04 23:27:36;;;;;;;2.55;0.70;;;;;;;19.01;61.88;97512.41;10378681;28;20129;-64
2023/08/04 23:32:56;;;;;;;1.40;0.60;;;;;;;19.00;62.06;97527.19;10378273;28;20125;-64
2023/08/04 23:38:17;;;;;;;1.88;0.55;;;;;;;18.95;61.92;97517.13;10378110;28;20077;-64
2023/08/04 23:43:38;;;;;;;1.92;0.68;;;;;;;18.89;62.34;97517.66;10376855;28;20188;-64
2023/08/04 23:48:58;;;;;;;1.77;0.50;;;;;;;18.89;62.32;97512.00;10377679;28;20452;-65
2023/08/04 23:54:19;;;;;;;2.97;0.63;;;;;;;18.83;62.84;97501.22;10376300;28;20053;-65
2023/08/04 23:59:40;;;;;;;2.22;0.77;;;;;;;18.80;62.61;97498.97;10376575;28;20131;-64
